Terminal Aerodrome Forecast
Issued by NWS Wilmington, OH

Home | Current Version | Previous Version | Text Only | Print | Product List | Glossary On
Versions: 1 2 3 4 5 6 7 8 9 10 11 12 13 14 15 16 17 18 19 20 21 22 23 24 25 26 27
000
FTUS41 KILN 021700
TAFILN
TAF
KILN 021736Z 0218/0318 24012G18KT P6SM VCTS SCT020 BKN040CB
      TEMPO 0218/0221 5SM -TSRA BR OVC020CB
     FM022100 26010KT P6SM BKN035
     FM030000 26005KT P6SM SCT035 BKN250
     FM030400 VRB03KT 4SM BR SCT035 BKN250
     FM030600 00000KT 2SM BR SCT001
      TEMPO 0309/0312 1/2SM FG BKN001
     FM031400 VRB04KT P6SM SCT025=

USA.gov is the U.S. government's official web portal to all federal, state and local government web resources and services.